sensor_id;sensor_type;location;lat;lon;timestamp;pressure;altitude;pressure_sealevel;temperature;humidity
39699;BME280;25372;50.582;12.250;2024-03-23T00:58:32;98937.28;;;6.32;100.00
39699;BME280;25372;50.582;12.250;2024-03-23T01:08:54;98930.88;;;6.94;98.77
39699;BME280;25372;50.582;12.250;2024-03-23T01:19:17;98911.00;;;6.64;100.00
39699;BME280;25372;50.582;12.250;2024-03-23T01:29:38;98907.38;;;6.23;100.00
39699;BME280;25372;50.582;12.250;2024-03-23T01:40:00;98899.50;;;5.94;100.00
39699;BME280;25372;50.582;12.250;2024-03-23T01:50:24;98884.28;;;5.86;100.00
39699;BME280;25372;50.582;12.250;2024-03-23T02:00:47;98867.28;;;5.95;100.00
39699;BME280;25372;50.582;12.250;2024-03-23T02:11:08;98860.44;;;6.23;100.00
39699;BME280;25372;50.582;12.250;2024-03-23T02:21:31;98834.56;;;6.20;100.00
39699;BME280;25372;50.582;12.250;2024-03-23T02:31:54;98824.13;;;6.62;100.00
39699;BME280;25372;50.582;12.250;2024-03-23T02:42:14;98816.97;;;6.93;100.00
39699;BME280;25372;50.582;12.250;2024-03-23T02:52:38;98802.94;;;7.08;100.00
39699;BME280;25372;50.582;12.250;2024-03-23T03:03:00;98804.63;;;7.35;100.00
39699;BME280;25372;50.582;12.250;2024-03-23T03:13:24;98774.59;;;7.02;100.00
39699;BME280;25372;50.582;12.250;2024-03-23T03:23:45;98765.44;;;7.09;100.00
39699;BME280;25372;50.582;12.250;2024-03-23T03:34:11;98751.00;;;7.17;100.00
39699;BME280;25372;50.582;12.250;2024-03-23T03:44:32;98751.97;;;7.28;100.00
39699;BME280;25372;50.582;12.250;2024-03-23T03:55:01;98723.97;;;7.56;100.00
39699;BME280;25372;50.582;12.250;2024-03-23T04:05:23;98714.16;;;7.08;100.00
39699;BME280;25372;50.582;12.250;2024-03-23T04:15:46;98694.63;;;6.48;100.00
39699;BME280;25372;50.582;12.250;2024-03-23T04:26:08;98677.47;;;5.74;100.00
39699;BME280;25372;50.582;12.250;2024-03-23T04:36:30;98662.72;;;5.87;100.00
39699;BME280;25372;50.582;12.250;2024-03-23T04:46:51;98664.25;;;5.34;100.00
39699;BME280;25372;50.582;12.250;2024-03-23T04:57:13;98611.63;;;6.27;100.00
39699;BME280;25372;50.582;12.250;2024-03-23T05:07:40;98579.78;;;6.22;100.00
39699;BME280;25372;50.582;12.250;2024-03-23T05:18:04;98580.81;;;5.92;100.00
39699;BME280;25372;50.582;12.250;2024-03-23T05:28:26;98539.03;;;6.98;100.00
39699;BME280;25372;50.582;12.250;2024-03-23T05:38:48;98542.13;;;7.30;100.00
39699;BME280;25372;50.582;12.250;2024-03-23T05:49:09;98534.88;;;7.70;100.00
39699;BME280;25372;50.582;12.250;2024-03-23T05:59:31;98506.09;;;7.95;100.00
39699;BME280;25372;50.582;12.250;2024-03-23T06:09:52;98476.00;;;7.53;100.00
39699;BME280;25372;50.582;12.250;2024-03-23T06:20:15;98443.97;;;7.38;100.00
39699;BME280;25372;50.582;12.250;2024-03-23T06:30:36;98429.34;;;7.60;100.00
39699;BME280;25372;50.582;12.250;2024-03-23T06:40:58;98411.38;;;7.80;100.00
39699;BME280;25372;50.582;12.250;2024-03-23T06:51:19;98395.84;;;7.54;100.00
39699;BME280;25372;50.582;12.250;2024-03-23T07:01:42;98379.28;;;7.66;100.00
39699;BME280;25372;50.582;12.250;2024-03-23T07:12:03;98389.22;;;7.61;100.00
39699;BME280;25372;50.582;12.250;2024-03-23T07:22:26;98351.78;;;7.49;100.00
39699;BME280;25372;50.582;12.250;2024-03-23T07:32:47;98340.34;;;7.39;100.00
39699;BME280;25372;50.582;12.250;2024-03-23T07:43:09;98309.38;;;7.46;100.00
39699;BME280;25372;50.582;12.250;2024-03-23T07:53:31;98294.81;;;7.77;100.00
39699;BME280;25372;50.582;12.250;2024-03-23T08:03:54;98252.88;;;8.24;100.00
39699;BME280;25372;50.582;12.250;2024-03-23T08:14:15;98235.94;;;8.63;99.26
39699;BME280;25372;50.582;12.250;2024-03-23T08:24:37;98207.97;;;9.48;99.34
39699;BME280;25372;50.582;12.250;2024-03-23T08:34:59;98193.88;;;10.21;91.99
39699;BME280;25372;50.582;12.250;2024-03-23T08:45:21;98208.28;;;9.86;93.35
39699;BME280;25372;50.582;12.250;2024-03-23T08:55:42;98192.59;;;9.65;95.43
39699;BME280;25372;50.582;12.250;2024-03-23T09:06:15;98187.56;;;10.63;92.38
39699;BME280;25372;50.582;12.250;2024-03-23T09:16:36;98175.53;;;11.00;89.51
39699;BME280;25372;50.582;12.250;2024-03-23T09:26:59;98195.44;;;11.03;83.36
39699;BME280;25372;50.582;12.250;2024-03-23T09:37:20;98224.31;;;10.63;86.87
39699;BME280;25372;50.582;12.250;2024-03-23T09:47:42;98271.00;;;8.93;98.32
39699;BME280;25372;50.582;12.250;2024-03-23T09:58:04;98376.22;;;7.12;100.00
39699;BME280;25372;50.582;12.250;2024-03-23T10:08:28;98427.44;;;6.13;100.00
39699;BME280;25372;50.582;12.250;2024-03-23T10:18:50;98512.75;;;4.99;97.95
39699;BME280;25372;50.582;12.250;2024-03-23T10:29:12;98606.44;;;4.85;95.85
39699;BME280;25372;50.582;12.250;2024-03-23T10:39:34;98630.16;;;4.50;97.85
39699;BME280;25372;50.582;12.250;2024-03-23T10:49:57;98690.97;;;4.31;99.51
39699;BME280;25372;50.582;12.250;2024-03-23T11:00:18;98737.75;;;4.47;100.00
39699;BME280;25372;50.582;12.250;2024-03-23T11:10:42;98775.34;;;4.25;100.00
39699;BME280;25372;50.582;12.250;2024-03-23T11:21:04;98762.38;;;5.33;100.00
39699;BME280;25372;50.582;12.250;2024-03-23T11:31:26;98763.38;;;5.16;98.18
39699;BME280;25372;50.582;12.250;2024-03-23T11:41:48;98796.88;;;4.59;100.00
39699;BME280;25372;50.582;12.250;2024-03-23T11:52:11;98827.72;;;5.28;100.00
39699;BME280;25372;50.582;12.250;2024-03-23T12:02:32;98813.47;;;5.50;96.96
39699;BME280;25372;50.582;12.250;2024-03-23T12:13:01;98801.69;;;5.88;95.64
39699;BME280;25372;50.582;12.250;2024-03-23T12:23:23;98797.56;;;5.84;94.03
39699;BME280;25372;50.582;12.250;2024-03-23T12:33:45;98819.44;;;6.39;87.78
39699;BME280;25372;50.582;12.250;2024-03-23T12:44:07;98788.53;;;6.88;85.19
39699;BME280;25372;50.582;12.250;2024-03-23T12:54:32;98826.16;;;6.29;86.46
39699;BME280;25372;50.582;12.250;2024-03-23T13:04:54;98852.56;;;5.79;84.39
39699;BME280;25372;50.582;12.250;2024-03-23T13:15:16;98834.13;;;5.68;83.86
39699;BME280;25372;50.582;12.250;2024-03-23T13:25:39;98864.72;;;6.38;83.11
39699;BME280;25372;50.582;12.250;2024-03-23T13:36:01;98905.78;;;6.35;79.46
39699;BME280;25372;50.582;12.250;2024-03-23T13:46:22;98870.31;;;7.16;75.41
39699;BME280;25372;50.582;12.250;2024-03-23T13:56:45;98847.25;;;7.23;76.10
39699;BME280;25372;50.582;12.250;2024-03-23T14:07:06;98849.00;;;7.22;73.74
39699;BME280;25372;50.582;12.250;2024-03-23T14:17:30;98860.50;;;6.92;73.30
39699;BME280;25372;50.582;12.250;2024-03-23T14:27:51;98880.59;;;7.32;69.44
39699;BME280;25372;50.582;12.250;2024-03-23T14:38:14;98873.88;;;8.20;62.70
39699;BME280;25372;50.582;12.250;2024-03-23T14:48:35;98846.53;;;7.34;67.68
39699;BME280;25372;50.582;12.250;2024-03-23T14:58:58;98844.31;;;8.57;64.42
39699;BME280;25372;50.582;12.250;2024-03-23T15:09:19;98824.81;;;7.59;67.12
39699;BME280;25372;50.582;12.250;2024-03-23T15:19:41;98822.09;;;7.74;68.55
39699;BME280;25372;50.582;12.250;2024-03-23T15:30:04;98807.06;;;8.03;67.83
39699;BME280;25372;50.582;12.250;2024-03-23T15:40:26;98803.00;;;7.86;69.52
39699;BME280;25372;50.582;12.250;2024-03-23T15:50:51;98787.75;;;7.54;74.60
39699;BME280;25372;50.582;12.250;2024-03-23T16:01:14;98778.72;;;7.32;74.33
39699;BME280;25372;50.582;12.250;2024-03-23T16:11:35;98785.97;;;7.01;75.61
39699;BME280;25372;50.582;12.250;2024-03-23T16:21:57;98830.06;;;6.22;74.53
39699;BME280;25372;50.582;12.250;2024-03-23T16:32:18;98864.97;;;5.45;80.25
39699;BME280;25372;50.582;12.250;2024-03-23T16:42:41;98850.72;;;5.06;81.73
39699;BME280;25372;50.582;12.250;2024-03-23T16:53:03;98854.91;;;4.92;86.01
39699;BME280;25372;50.582;12.250;2024-03-23T17:03:25;98865.41;;;4.90;85.10
39699;BME280;25372;50.582;12.250;2024-03-23T17:13:49;98876.31;;;4.81;85.21
39699;BME280;25372;50.582;12.250;2024-03-23T17:24:15;98869.38;;;4.66;88.61
39699;BME280;25372;50.582;12.250;2024-03-23T17:34:36;98862.63;;;4.45;88.36
39699;BME280;25372;50.582;12.250;2024-03-23T17:44:58;98857.78;;;3.54;92.40
39699;BME280;25372;50.582;12.250;2024-03-23T17:55:19;98848.81;;;3.07;96.01
39699;BME280;25372;50.582;12.250;2024-03-23T18:05:42;98884.91;;;2.94;97.06
39699;BME280;25372;50.582;12.250;2024-03-23T18:16:04;98876.44;;;2.90;97.35
39699;BME280;25372;50.582;12.250;2024-03-23T18:26:26;98873.91;;;2.89;96.72
39699;BME280;25372;50.582;12.250;2024-03-23T18:36:47;98880.44;;;2.78;95.91
39699;BME280;25372;50.582;12.250;2024-03-23T18:47:11;98871.59;;;2.63;95.43
39699;BME280;25372;50.582;12.250;2024-03-23T18:57:32;98867.56;;;2.38;97.68
39699;BME280;25372;50.582;12.250;2024-03-23T19:07:54;98864.25;;;2.16;99.13
39699;BME280;25372;50.582;12.250;2024-03-23T19:18:15;98864.28;;;1.74;100.00
39699;BME280;25372;50.582;12.250;2024-03-23T19:28:38;98861.34;;;2.03;99.70
39699;BME280;25372;50.582;12.250;2024-03-23T19:39:00;98870.97;;;2.20;95.39
39699;BME280;25372;50.582;12.250;2024-03-23T19:49:22;98859.56;;;2.24;94.48
39699;BME280;25372;50.582;12.250;2024-03-23T19:59:46;98871.25;;;2.33;94.76
39699;BME280;25372;50.582;12.250;2024-03-23T20:10:09;98855.56;;;2.17;96.97
39699;BME280;25372;50.582;12.250;2024-03-23T20:20:31;98864.56;;;1.89;96.53
39699;BME280;25372;50.582;12.250;2024-03-23T20:30:56;98862.56;;;2.15;96.38
39699;BME280;25372;50.582;12.250;2024-03-23T20:41:17;98858.47;;;1.90;97.46
39699;BME280;25372;50.582;12.250;2024-03-23T20:51:41;98850.53;;;1.74;97.16
39699;BME280;25372;50.582;12.250;2024-03-23T21:02:02;98838.78;;;1.65;96.64
39699;BME280;25372;50.582;12.250;2024-03-23T21:12:25;98839.66;;;1.65;97.73
39699;BME280;25372;50.582;12.250;2024-03-23T21:22:46;98836.72;;;1.32;97.72
39699;BME280;25372;50.582;12.250;2024-03-23T21:33:12;98834.16;;;0.66;100.00
39699;BME280;25372;50.582;12.250;2024-03-23T21:43:32;98825.88;;;1.23;98.57
39699;BME280;25372;50.582;12.250;2024-03-23T21:53:55;98807.69;;;1.46;95.28
39699;BME280;25372;50.582;12.250;2024-03-23T22:04:17;98814.13;;;1.15;94.72
39699;BME280;25372;50.582;12.250;2024-03-23T22:14:39;98825.59;;;1.30;95.90
39699;BME280;25372;50.582;12.250;2024-03-23T22:25:01;98808.78;;;1.40;93.65
39699;BME280;25372;50.582;12.250;2024-03-23T22:35:23;98808.91;;;1.37;93.52
39699;BME280;25372;50.582;12.250;2024-03-23T22:45:52;98803.94;;;1.32;93.55
39699;BME280;25372;50.582;12.250;2024-03-23T22:56:15;98800.09;;;1.41;93.19
39699;BME280;25372;50.582;12.250;2024-03-23T23:06:38;98797.38;;;1.65;91.18
39699;BME280;25372;50.582;12.250;2024-03-23T23:17:00;98779.53;;;1.59;91.24
39699;BME280;25372;50.582;12.250;2024-03-23T23:27:22;98782.84;;;1.21;92.42
39699;BME280;25372;50.582;12.250;2024-03-23T23:37:45;98778.78;;;1.15;93.92
39699;BME280;25372;50.582;12.250;2024-03-23T23:48:06;98769.97;;;1.19;92.71
39699;BME280;25372;50.582;12.250;2024-03-23T23:58:29;98766.16;;;0.87;93.56
